Time;durP1;ratioP1;P1;durP2;ratioP2;P2;SDS_P1;SDS_P2;PMS_P1;PMS_P2;Temp;Humidity;BMP_temperature;BMP_pressure;BME280_temperature;BME280_humidity;BME280_pressure;Samples;Min_cycle;Max_cycle;Signal;HPM_P1;HPM_P2
2022/06/18 00:00:52;;;;;;;6.80;3.90;;;;;;;21.39;76.99;99803.25;5092860;28;20991;-85
2022/06/18 00:03:19;;;;;;;4.57;4.13;;;;;;;21.48;76.99;99804.25;5093136;28;20528;-85
2022/06/18 00:05:47;;;;;;;5.67;4.17;;;;;;;21.56;76.32;99796.97;5093046;28;20454;-85
2022/06/18 00:08:18;;;;;;;5.37;4.00;;;;;;;21.44;76.98;99800.97;5091854;28;20517;-85
2022/06/18 00:10:45;;;;;;;6.33;4.13;;;;;;;21.25;77.70;99801.91;5091825;28;20470;-85
2022/06/18 00:13:41;;;;;;;4.43;3.70;;;;;;;21.29;77.36;99797.00;5092921;28;20510;-85
2022/06/18 00:16:10;;;;;;;3.60;3.30;;;;;;;21.19;76.75;99800.66;5092790;28;20450;-85
2022/06/18 00:18:37;;;;;;;4.93;3.67;;;;;;;21.07;75.54;99801.00;5092299;28;20556;-85
2022/06/18 00:21:06;;;;;;;4.00;3.30;;;;;;;21.13;75.17;99811.34;5091733;28;20452;-86
2022/06/18 00:23:33;;;;;;;3.67;3.33;;;;;;;21.17;73.63;99804.56;5091570;28;20450;-85
2022/06/18 00:26:00;;;;;;;3.90;3.30;;;;;;;20.88;74.60;99811.03;5092650;28;20448;-85
2022/06/18 00:28:31;;;;;;;6.63;3.20;;;;;;;20.79;74.99;99798.25;5092407;28;20422;-85
2022/06/18 00:30:58;;;;;;;3.30;2.87;;;;;;;20.92;74.73;99803.38;5092599;28;20433;-85
2022/06/18 00:33:26;;;;;;;4.23;3.73;;;;;;;20.81;76.62;99799.81;5091863;28;20465;-86
2022/06/18 00:35:56;;;;;;;4.57;3.83;;;;;;;20.87;77.96;99797.47;5092115;28;20512;-86
2022/06/18 00:38:26;;;;;;;6.87;3.50;;;;;;;20.86;78.22;99798.50;5092592;28;20441;-86
2022/06/18 00:40:53;;;;;;;5.73;3.80;;;;;;;20.83;79.06;99803.28;5091961;28;20422;-86
2022/06/18 00:43:25;;;;;;;10.13;4.27;;;;;;;20.57;81.72;99792.13;5092035;28;20532;-85
2022/06/18 00:45:57;;;;;;;4.80;3.90;;;;;;;20.61;81.58;99793.53;5092853;28;20437;-85
2022/06/18 00:48:28;;;;;;;4.80;3.90;;;;;;;20.56;82.13;99789.53;5092365;28;20498;-86
2022/06/18 00:50:58;;;;;;;4.10;3.27;;;;;;;20.51;82.42;99792.69;5092483;28;20466;-85
2022/06/18 00:53:32;;;;;;;8.00;3.63;;;;;;;20.55;82.23;99788.63;5092692;28;20489;-86
2022/06/18 00:56:05;;;;;;;4.77;3.60;;;;;;;20.48;82.79;99783.91;5092652;28;20461;-86
2022/06/18 00:58:36;;;;;;;4.40;3.90;;;;;;;20.44;83.32;99794.28;5092507;28;20513;-85
2022/06/18 01:01:13;;;;;;;4.60;3.70;;;;;;;20.36;83.98;99789.56;5092619;28;20497;-85
2022/06/18 01:03:39;;;;;;;4.93;3.83;;;;;;;20.46;83.16;99788.66;5072792;28;20426;-85
2022/06/18 01:06:16;;;;;;;3.87;3.57;;;;;;;20.49;82.71;99782.94;5088126;28;20450;-85
2022/06/18 01:08:44;;;;;;;3.70;3.40;;;;;;;20.45;81.62;99776.88;5092519;28;20457;-85
2022/06/18 01:11:17;;;;;;;4.03;2.97;;;;;;;20.17;80.56;99781.38;5092415;28;20434;-86
2022/06/18 01:13:44;;;;;;;4.53;3.47;;;;;;;20.20;80.17;99779.22;5092504;28;20520;-85
2022/06/18 01:16:12;;;;;;;4.50;2.90;;;;;;;20.27;79.94;99775.91;5093000;28;20430;-86
2022/06/18 01:18:39;;;;;;;3.80;3.10;;;;;;;20.09;80.62;99776.66;5092865;28;20458;-85
2022/06/18 01:21:16;;;;;;;3.50;3.20;;;;;;;20.07;80.72;99773.19;5091686;28;20442;-85
2022/06/18 01:23:48;;;;;;;4.97;2.57;;;;;;;20.05;80.15;99767.00;5075933;28;20815;-85
2022/06/18 01:26:16;;;;;;;7.73;3.30;;;;;;;19.99;79.88;99775.81;5089364;28;20916;-85
2022/06/18 01:28:43;;;;;;;5.23;3.03;;;;;;;20.02;80.72;99763.72;5096835;28;20464;-85
2022/06/18 01:31:10;;;;;;;3.80;3.30;;;;;;;20.10;80.66;99761.09;5095756;28;20466;-85
2022/06/18 01:33:38;;;;;;;4.90;3.20;;;;;;;19.94;81.93;99769.91;5096073;28;20437;-85
2022/06/18 01:36:08;;;;;;;5.17;3.53;;;;;;;20.00;81.75;99762.00;5095332;28;20436;-86
2022/06/18 01:38:40;;;;;;;3.77;3.37;;;;;;;20.02;82.30;99753.66;5096054;28;20430;-85
2022/06/18 01:44:04;;;;;;;5.13;3.43;;;;;;;19.79;85.09;99753.09;5084718;28;20438;-85
2022/06/18 01:46:32;;;;;;;3.80;3.30;;;;;;;19.78;86.32;99751.38;5095377;28;20436;-85
2022/06/18 01:49:02;;;;;;;4.40;3.80;;;;;;;19.73;88.23;99753.69;5095652;28;20866;-85
2022/06/18 01:51:33;;;;;;;5.30;3.60;;;;;;;19.72;88.76;99750.09;5095697;28;20888;-86
2022/06/18 01:54:06;;;;;;;4.10;3.70;;;;;;;19.72;89.23;99755.56;5095677;28;20452;-85
2022/06/18 01:56:37;;;;;;;4.00;3.30;;;;;;;19.79;88.00;99750.38;5095140;28;21271;-86
2022/06/18 01:59:09;;;;;;;6.87;3.93;;;;;;;19.60;89.58;99753.91;5095505;28;20422;-85
2022/06/18 02:01:39;;;;;;;4.87;4.40;;;;;;;19.68;88.04;99751.34;5095347;28;20430;-86
2022/06/18 02:04:06;;;;;;;4.13;3.80;;;;;;;19.54;89.10;99749.91;5095533;28;20444;-85
2022/06/18 02:06:35;;;;;;;4.40;3.73;;;;;;;19.46;89.51;99748.91;5095124;28;20536;-85
2022/06/18 02:09:04;;;;;;;5.20;3.90;;;;;;;19.54;88.88;99747.19;5094866;28;20434;-85
2022/06/18 02:11:31;;;;;;;4.93;4.10;;;;;;;19.46;89.95;99749.75;5094870;28;20790;-86
2022/06/18 02:14:04;;;;;;;5.60;4.50;;;;;;;19.35;90.92;99739.81;5095152;28;20520;-85
2022/06/18 02:16:35;;;;;;;4.87;4.47;;;;;;;19.38;91.12;99742.28;5094707;28;21345;-86
2022/06/18 02:19:04;;;;;;;6.30;4.50;;;;;;;19.27;91.78;99742.41;5054870;28;20522;-85
2022/06/18 02:21:38;;;;;;;6.07;4.73;;;;;;;19.19;92.68;99741.38;5054654;28;20516;-85
2022/06/18 02:24:05;;;;;;;5.80;4.60;;;;;;;19.10;93.62;99743.09;5054622;28;20523;-86
2022/06/18 02:26:32;;;;;;;4.80;3.60;;;;;;;19.18;92.75;99735.06;5054128;28;20451;-85
2022/06/18 02:29:00;;;;;;;4.87;4.30;;;;;;;19.23;91.07;99734.66;5054313;28;20526;-85
2022/06/18 02:31:29;;;;;;;6.40;4.20;;;;;;;19.37;89.73;99729.63;5054167;28;20576;-85
2022/06/18 02:34:02;;;;;;;4.40;3.77;;;;;;;19.36;87.30;99733.38;5053908;28;20503;-85
2022/06/18 02:36:31;;;;;;;3.70;3.40;;;;;;;19.05;88.97;99737.19;5054241;28;20527;-85
2022/06/18 02:39:02;;;;;;;4.78;4.28;;;;;;;19.06;89.91;99734.34;5054066;28;20428;-85
2022/06/18 02:41:28;;;;;;;3.60;3.20;;;;;;;19.19;89.17;99741.38;5053934;28;20188;-85
2022/06/18 02:43:55;;;;;;;4.93;3.80;;;;;;;19.11;90.39;99740.22;5054515;28;20522;-85
2022/06/18 02:46:23;;;;;;;5.87;3.80;;;;;;;19.04;91.21;99741.81;5054122;28;20427;-85
2022/06/18 02:48:50;;;;;;;4.47;3.77;;;;;;;18.97;92.24;99740.59;5054282;28;20415;-85
2022/06/18 02:51:18;;;;;;;5.97;4.17;;;;;;;18.93;92.79;99742.75;5054178;28;20483;-85
2022/06/18 02:53:45;;;;;;;4.68;3.13;;;;;;;18.96;92.90;99736.16;5054190;28;20428;-85
2022/06/18 02:56:15;;;;;;;4.60;4.20;;;;;;;18.93;93.71;99739.19;5054330;28;20644;-86
2022/06/18 02:58:44;;;;;;;3.80;3.50;;;;;;;18.87;94.63;99729.69;5053788;28;20424;-85
2022/06/18 03:01:14;;;;;;;4.70;4.20;;;;;;;18.98;93.76;99742.34;5053389;28;20527;-85
2022/06/18 03:03:44;;;;;;;4.90;4.20;;;;;;;18.91;94.38;99739.31;5053913;28;20533;-85
2022/06/18 03:06:11;;;;;;;4.70;4.30;;;;;;;18.80;94.62;99739.41;5053266;28;20450;-85
2022/06/18 03:08:39;;;;;;;4.35;3.95;;;;;;;18.74;95.64;99739.94;5053976;28;20273;-85
2022/06/18 03:14:02;;;;;;;6.60;3.85;;;;;;;18.67;96.65;99744.22;5017605;28;20204;-85
2022/06/18 03:16:29;;;;;;;6.40;4.65;;;;;;;18.86;95.37;99743.44;5053590;28;20276;-85
2022/06/18 03:18:58;;;;;;;5.93;4.93;;;;;;;18.83;95.41;99738.28;5092288;28;20243;-85
2022/06/18 03:21:28;;;;;;;5.13;4.20;;;;;;;18.72;96.41;99740.09;5093872;28;20184;-85
2022/06/18 03:23:56;;;;;;;4.70;4.30;;;;;;;18.84;95.02;99737.28;5093542;28;20214;-84
2022/06/18 03:26:23;;;;;;;5.70;4.50;;;;;;;18.81;94.94;99738.41;5093107;28;20202;-86
2022/06/18 03:28:50;;;;;;;4.05;3.65;;;;;;;18.80;94.80;99733.09;5093997;28;20775;-85
2022/06/18 03:31:17;;;;;;;4.20;3.80;;;;;;;18.60;96.67;99743.03;5093463;28;20637;-86
2022/06/18 03:33:46;;;;;;;5.75;3.60;;;;;;;18.59;97.35;99747.66;5093657;28;20294;-86
2022/06/18 03:36:14;;;;;;;7.22;4.20;;;;;;;18.68;96.24;99754.16;5093326;28;20195;-85
2022/06/18 03:38:41;;;;;;;4.70;3.60;;;;;;;18.68;96.29;99759.59;5092363;28;20326;-86
2022/06/18 03:41:10;;;;;;;5.32;3.63;;;;;;;18.72;95.77;99752.84;5093332;28;20532;-86
2022/06/18 03:43:37;;;;;;;3.78;3.47;;;;;;;18.81;94.31;99752.03;5093466;28;20187;-86
2022/06/18 03:46:07;;;;;;;4.35;3.70;;;;;;;18.64;94.92;99756.28;5091768;28;20279;-86
2022/06/18 03:48:42;;;;;;;4.07;3.67;;;;;;;18.56;95.99;99761.53;5093551;28;20227;-86
2022/06/18 03:51:10;;;;;;;6.13;3.90;;;;;;;18.49;96.47;99760.34;5092532;28;20207;-86
2022/06/18 03:53:37;;;;;;;7.43;4.00;;;;;;;18.43;97.46;99758.16;5093148;28;20433;-86
2022/06/18 03:56:03;;;;;;;5.67;4.33;;;;;;;18.38;98.50;99761.28;5092348;28;20196;-86
2022/06/18 03:58:32;;;;;;;4.45;4.05;;;;;;;18.47;98.38;99760.47;5092732;28;20452;-86
2022/06/18 04:00:58;;;;;;;5.63;4.20;;;;;;;18.53;98.20;99765.41;5092668;28;20188;-86
2022/06/18 04:03:25;;;;;;;4.80;4.10;;;;;;;18.58;97.66;99762.25;5092913;28;20206;-86
2022/06/18 04:05:52;;;;;;;6.40;4.10;;;;;;;18.58;96.91;99767.72;5092839;28;20206;-86
2022/06/18 04:08:19;;;;;;;4.32;3.92;;;;;;;18.47;98.26;99765.94;5092475;28;20195;-85
2022/06/18 04:10:46;;;;;;;5.75;3.90;;;;;;;18.59;97.76;99763.13;5092379;28;20231;-85
2022/06/18 04:13:14;;;;;;;7.07;4.30;;;;;;;18.53;96.85;99765.41;5092611;28;20240;-86
2022/06/18 04:15:42;;;;;;;4.60;4.20;;;;;;;18.63;96.08;99767.31;5092389;28;20538;-86
2022/06/18 04:18:10;;;;;;;4.28;3.60;;;;;;;18.54;96.50;99767.13;5092405;28;20997;-86
2022/06/18 04:20:38;;;;;;;4.55;3.78;;;;;;;18.60;96.44;99764.84;5092591;28;20189;-86
2022/06/18 04:23:05;;;;;;;4.88;4.10;;;;;;;18.53;97.34;99759.94;5092555;28;20223;-86
2022/06/18 04:25:32;;;;;;;4.85;4.10;;;;;;;18.71;96.32;99756.59;5092185;28;20202;-86
2022/06/18 04:27:59;;;;;;;4.70;4.30;;;;;;;18.86;94.77;99747.06;5092618;28;20271;-86
2022/06/18 04:30:27;;;;;;;4.47;3.88;;;;;;;19.02;92.91;99752.00;5092488;28;20306;-86
2022/06/18 04:32:55;;;;;;;5.05;3.88;;;;;;;19.00;93.05;99755.88;5092579;28;20222;-85
2022/06/18 04:35:23;;;;;;;5.50;3.80;;;;;;;18.85;94.30;99749.91;5091665;28;20207;-86
2022/06/18 04:37:50;;;;;;;4.80;4.38;;;;;;;18.84;94.49;99750.94;5090832;28;20652;-84
2022/06/18 04:40:20;;;;;;;5.03;4.57;;;;;;;18.85;94.42;99745.31;5091279;28;20281;-85
2022/06/18 04:42:48;;;;;;;4.78;3.40;;;;;;;18.90;93.86;99745.78;5091910;28;20592;-85
2022/06/18 04:45:15;;;;;;;4.07;3.77;;;;;;;18.76;95.31;99743.38;5091947;28;20199;-85
2022/06/18 04:47:42;;;;;;;5.40;4.63;;;;;;;18.76;95.73;99746.97;5091877;28;20549;-85
2022/06/18 04:50:17;;;;;;;4.28;3.80;;;;;;;18.72;96.63;99756.47;5091830;28;20199;-85
2022/06/18 04:52:44;;;;;;;4.88;4.38;;;;;;;18.88;94.81;99745.06;5091893;28;20690;-85
2022/06/18 04:55:11;;;;;;;5.28;3.90;;;;;;;18.91;94.74;99747.50;5092181;28;20203;-85
2022/06/18 04:57:38;;;;;;;6.77;4.60;;;;;;;19.14;92.70;99752.72;5091312;28;20302;-86
2022/06/18 05:00:07;;;;;;;5.60;4.45;;;;;;;19.24;91.62;99752.75;5091395;28;20524;-85
2022/06/18 05:02:35;;;;;;;4.82;4.40;;;;;;;19.25;91.16;99744.41;5091760;28;20297;-85
2022/06/18 05:05:03;;;;;;;4.70;4.30;;;;;;;19.32;90.17;99745.56;5091336;28;20293;-85
2022/06/18 05:07:32;;;;;;;3.93;3.60;;;;;;;19.62;88.42;99745.59;5091360;28;20495;-86
2022/06/18 05:09:58;;;;;;;6.10;4.00;;;;;;;19.79;86.55;99748.50;5091195;28;20513;-86
2022/06/18 05:12:25;;;;;;;5.35;4.85;;;;;;;20.00;85.20;99739.28;5091370;28;20517;-84
2022/06/18 05:14:54;;;;;;;4.43;4.03;;;;;;;19.61;87.81;99744.75;5094422;28;20199;-86
2022/06/18 05:17:24;;;;;;;6.43;4.70;;;;;;;19.69;87.73;99742.16;5093057;28;20881;-86
2022/06/18 05:19:51;;;;;;;4.73;4.23;;;;;;;20.02;86.17;99737.25;5092450;28;20429;-85
2022/06/18 05:22:17;;;;;;;18.77;6.87;;;;;;;20.14;85.27;99730.59;5092150;28;20908;-83
2022/06/18 05:24:46;;;;;;;5.67;4.60;;;;;;;20.23;84.35;99733.47;5092795;28;20780;-85
2022/06/18 05:27:20;;;;;;;4.50;4.10;;;;;;;20.47;82.77;99731.09;5091862;28;20438;-85
2022/06/18 05:29:47;;;;;;;5.27;4.77;;;;;;;20.53;82.17;99730.50;5091639;28;20905;-86
2022/06/18 05:32:13;;;;;;;8.70;5.20;;;;;;;20.82;80.80;99730.38;5091200;28;20464;-86
2022/06/18 05:34:40;;;;;;;5.63;5.00;;;;;;;21.04;79.19;99723.63;5091170;28;20520;-84
2022/06/18 05:37:12;;;;;;;5.60;5.10;;;;;;;21.24;77.29;99721.63;5095601;28;20437;-85
2022/06/18 05:39:38;;;;;;;5.13;4.63;;;;;;;21.41;76.11;99714.50;5112581;28;20931;-86
2022/06/18 05:42:07;;;;;;;5.53;5.00;;;;;;;21.67;74.62;99718.31;5111786;28;20428;-85
2022/06/18 05:44:34;;;;;;;5.43;4.90;;;;;;;21.72;74.23;99714.06;5096297;28;20441;-86
2022/06/18 05:47:01;;;;;;;5.20;4.80;;;;;;;21.84;73.76;99706.47;5091067;28;20553;-85
2022/06/18 05:49:27;;;;;;;6.57;5.07;;;;;;;21.97;73.29;99708.78;5090902;28;20521;-85
2022/06/18 05:51:54;;;;;;;5.87;4.43;;;;;;;22.02;73.16;99690.84;5091226;28;20528;-84
2022/06/18 05:54:21;;;;;;;8.50;6.67;;;;;;;22.16;71.20;99700.38;5091107;28;20952;-85
2022/06/18 05:56:47;;;;;;;5.20;4.70;;;;;;;22.16;71.41;99692.16;5091086;28;20445;-84
2022/06/18 05:59:15;;;;;;;8.13;6.20;;;;;;;22.11;72.12;99699.13;5091321;28;20427;-85
2022/06/18 06:01:42;;;;;;;6.37;5.03;;;;;;;22.31;70.65;99705.28;5091074;28;20521;-84
2022/06/18 06:04:09;;;;;;;5.53;5.03;;;;;;;22.45;70.84;99701.94;5091167;28;20975;-85
2022/06/18 06:06:35;;;;;;;10.03;6.10;;;;;;;22.41;71.80;99695.94;5091379;28;20572;-85
2022/06/18 06:09:02;;;;;;;5.23;4.60;;;;;;;22.37;69.73;99699.16;5091635;28;20464;-85
2022/06/18 06:11:30;;;;;;;5.17;4.57;;;;;;;22.42;68.98;99696.78;5095003;28;20786;-85
2022/06/18 06:13:58;;;;;;;6.40;4.07;;;;;;;22.39;68.72;99699.88;5094291;28;20960;-85
2022/06/18 06:16:26;;;;;;;5.50;4.77;;;;;;;22.73;67.31;99696.25;5093579;28;20461;-84
2022/06/18 06:18:53;;;;;;;5.53;5.10;;;;;;;22.92;66.68;99695.13;5094237;28;21157;-85
2022/06/18 06:21:20;;;;;;;5.20;4.33;;;;;;;23.05;66.64;99692.78;5094095;28;20473;-84
2022/06/18 06:23:47;;;;;;;5.10;4.30;;;;;;;23.26;65.83;99700.56;5094091;28;20437;-84
2022/06/18 06:26:18;;;;;;;5.43;4.93;;;;;;;23.34;64.98;99695.09;5094695;28;20833;-86
2022/06/18 06:28:45;;;;;;;5.80;4.67;;;;;;;23.67;63.66;99695.97;5093927;28;20462;-82
2022/06/18 06:31:12;;;;;;;6.20;5.00;;;;;;;23.66;64.57;99698.91;5093384;28;20557;-82
2022/06/18 06:33:40;;;;;;;6.60;5.63;;;;;;;23.65;65.11;99699.91;5094208;28;20438;-82
2022/06/18 06:36:07;;;;;;;5.20;4.73;;;;;;;23.48;66.25;99702.66;5093877;28;21016;-83
2022/06/18 06:38:37;;;;;;;5.00;4.60;;;;;;;23.72;65.80;99701.81;5093837;28;20464;-82
2022/06/18 06:41:06;;;;;;;6.43;5.30;;;;;;;23.68;66.16;99699.59;5093722;28;20418;-82
2022/06/18 06:43:32;;;;;;;4.60;4.20;;;;;;;23.67;66.13;99704.19;5093962;28;20573;-82
2022/06/18 06:45:59;;;;;;;6.33;5.73;;;;;;;24.09;64.57;99702.34;5094172;28;20518;-82
2022/06/18 06:48:26;;;;;;;5.43;4.87;;;;;;;24.04;64.62;99704.78;5094125;28;20457;-83
2022/06/18 06:50:53;;;;;;;5.30;4.10;;;;;;;24.10;64.26;99699.41;5093986;28;21014;-81
2022/06/18 06:53:20;;;;;;;5.20;4.70;;;;;;;24.08;64.66;99697.84;5094753;28;21226;-82
2022/06/18 06:58:31;;;;;;;6.00;5.40;;;;;;;24.50;63.10;99697.63;5093862;28;20398;-82
2022/06/18 07:00:59;;;;;;;9.93;5.17;;;;;;;24.62;62.68;99689.84;5093796;28;20517;-83
2022/06/18 07:03:27;;;;;;;5.70;4.07;;;;;;;24.90;59.38;99690.25;5094085;28;20789;-83
2022/06/18 07:05:57;;;;;;;12.80;4.73;;;;;;;25.50;55.71;99693.34;5093647;28;20947;-82
2022/06/18 07:08:24;;;;;;;4.73;4.30;;;;;;;25.76;54.03;99690.25;5094282;28;20430;-83
2022/06/18 07:10:50;;;;;;;6.00;4.60;;;;;;;25.94;53.47;99687.19;5094122;28;20899;-83
2022/06/18 07:13:19;;;;;;;5.30;4.23;;;;;;;26.03;53.35;99685.19;5094086;28;20448;-83
2022/06/18 07:15:46;;;;;;;4.70;4.07;;;;;;;26.15;53.66;99679.03;5094171;28;20436;-82
2022/06/18 07:18:16;;;;;;;6.93;4.20;;;;;;;26.17;53.60;99679.69;5093476;28;20484;-82
2022/06/18 07:20:43;;;;;;;6.10;4.13;;;;;;;26.41;52.98;99678.59;5093627;28;20795;-82
2022/06/18 07:23:11;;;;;;;4.57;3.50;;;;;;;26.49;52.26;99669.34;5093814;28;20428;-82
2022/06/18 07:25:38;;;;;;;5.30;4.17;;;;;;;26.53;52.58;99665.16;5093311;28;20415;-83
2022/06/18 07:28:05;;;;;;;4.60;4.20;;;;;;;26.58;52.31;99672.91;5093687;28;20535;-83
2022/06/18 07:30:32;;;;;;;4.40;4.00;;;;;;;26.79;51.55;99664.66;5093659;28;20446;-82
2022/06/18 07:32:59;;;;;;;9.30;3.80;;;;;;;26.83;50.62;99656.88;5093407;28;20898;-83
2022/06/18 07:35:28;;;;;;;6.80;6.07;;;;;;;26.93;51.00;99651.03;5093135;28;20859;-81
2022/06/18 07:37:56;;;;;;;4.90;4.10;;;;;;;27.08;50.33;99651.84;5092842;28;20469;-82
2022/06/18 07:40:26;;;;;;;5.20;3.60;;;;;;;27.48;48.74;99654.25;5092913;28;20438;-81
2022/06/18 07:42:54;;;;;;;4.90;3.70;;;;;;;27.64;48.14;99648.44;5093118;28;21106;-82
2022/06/18 07:45:23;;;;;;;6.80;3.53;;;;;;;27.72;47.65;99658.47;5093037;28;20520;-82
2022/06/18 07:47:50;;;;;;;6.50;4.07;;;;;;;27.82;47.68;99650.72;5092727;28;20509;-82
2022/06/18 07:50:19;;;;;;;6.03;5.40;;;;;;;27.97;47.48;99657.06;5092665;28;20533;-82
2022/06/18 07:52:46;;;;;;;3.97;3.33;;;;;;;27.95;47.03;99653.63;5092622;28;20477;-82
2022/06/18 07:55:16;;;;;;;5.43;3.70;;;;;;;28.11;46.95;99641.41;5092335;28;20452;-82
2022/06/18 07:57:44;;;;;;;5.67;4.07;;;;;;;28.06;47.22;99643.88;5092696;28;20501;-82
2022/06/18 08:00:12;;;;;;;4.20;3.80;;;;;;;28.21;46.28;99646.56;5092446;28;20442;-82
2022/06/18 08:02:40;;;;;;;5.33;3.93;;;;;;;28.37;46.30;99651.78;5092699;28;20472;-81
2022/06/18 08:05:07;;;;;;;3.90;3.50;;;;;;;28.54;45.70;99655.13;5092810;28;20507;-82
2022/06/18 08:07:35;;;;;;;3.47;3.17;;;;;;;28.77;44.85;99646.50;5092640;28;20900;-83
2022/06/18 08:10:02;;;;;;;4.40;2.70;;;;;;;29.04;43.70;99649.38;5092202;28;20517;-83
2022/06/18 08:12:28;;;;;;;3.50;3.20;;;;;;;29.05;43.51;99648.28;5092238;28;20900;-83
2022/06/18 08:14:58;;;;;;;5.20;3.23;;;;;;;29.04;41.64;99635.50;5092333;28;20431;-83
2022/06/18 08:17:25;;;;;;;6.10;5.57;;;;;;;29.21;41.81;99642.38;5091656;28;20477;-82
2022/06/18 08:19:51;;;;;;;4.43;3.50;;;;;;;29.33;41.51;99639.00;5092473;28;20571;-82
2022/06/18 08:22:18;;;;;;;4.03;3.10;;;;;;;29.54;39.98;99632.44;5092287;28;21012;-83
2022/06/18 08:24:45;;;;;;;3.23;2.93;;;;;;;29.55;38.54;99625.81;5092235;28;20757;-82
2022/06/18 08:27:14;;;;;;;5.20;2.87;;;;;;;29.72;38.56;99627.16;5091837;28;20442;-83
2022/06/18 08:29:40;;;;;;;5.20;3.60;;;;;;;29.86;38.21;99626.06;5091609;28;20426;-84
2022/06/18 08:32:09;;;;;;;4.53;3.60;;;;;;;30.05;38.52;99629.03;5091209;28;20490;-83
2022/06/18 08:34:36;;;;;;;5.40;4.00;;;;;;;30.20;38.78;99617.72;5092157;28;20505;-82
2022/06/18 08:37:05;;;;;;;6.80;4.97;;;;;;;30.28;37.72;99615.59;5091985;28;20470;-83
2022/06/18 08:39:33;;;;;;;2.60;2.37;;;;;;;30.46;37.33;99625.13;5091984;28;20450;-83
2022/06/18 08:42:12;;;;;;;6.33;3.20;;;;;;;30.59;37.22;99615.91;5092073;28;20426;-83
2022/06/18 08:45:04;;;;;;;3.13;2.77;;;;;;;30.72;37.38;99610.31;5091857;28;20548;-82
2022/06/18 08:47:51;;;;;;;4.07;3.70;;;;;;;30.81;36.74;99614.53;5089091;28;20784;-82
2022/06/18 08:50:38;;;;;;;5.07;3.20;;;;;;;30.98;36.47;99606.59;5091176;28;20529;-83
2022/06/18 08:53:21;;;;;;;3.17;2.90;;;;;;;30.98;33.05;99608.50;5091619;28;20487;-82
2022/06/18 08:55:55;;;;;;;4.43;3.73;;;;;;;30.69;33.85;99603.25;5092578;28;20422;-83
2022/06/18 08:58:28;;;;;;;2.63;2.43;;;;;;;30.75;33.67;99596.84;5091627;28;20427;-83
2022/06/18 09:00:59;;;;;;;3.17;2.10;;;;;;;30.75;33.39;99596.84;5092041;28;20456;-83
2022/06/18 09:03:39;;;;;;;2.87;2.67;;;;;;;30.81;33.03;99595.09;5092014;28;20498;-84
2022/06/18 09:06:25;;;;;;;3.73;3.07;;;;;;;30.89;32.90;99594.88;5092128;28;20454;-84
2022/06/18 09:09:02;;;;;;;2.57;2.37;;;;;;;31.08;32.90;99586.63;5093649;28;20469;-82
2022/06/18 09:11:49;;;;;;;4.00;2.27;;;;;;;31.09;32.72;99593.88;5091973;28;20497;-83
2022/06/18 09:14:21;;;;;;;2.20;2.00;;;;;;;31.09;33.04;99591.97;5092111;28;20531;-84
2022/06/18 09:16:55;;;;;;;2.37;2.17;;;;;;;31.21;32.84;99596.81;5091693;28;20432;-83
2022/06/18 09:19:27;;;;;;;3.60;2.40;;;;;;;31.38;33.07;99590.47;5090481;28;20551;-84
2022/06/18 09:21:55;;;;;;;3.73;2.53;;;;;;;31.71;31.54;99592.19;5091771;28;20421;-83
2022/06/18 09:24:26;;;;;;;3.20;2.40;;;;;;;31.85;30.44;99583.72;5091577;28;20525;-84
2022/06/18 09:27:00;;;;;;;6.23;2.20;;;;;;;32.02;30.28;99584.88;5091614;28;20433;-84
2022/06/18 09:29:33;;;;;;;3.40;2.70;;;;;;;32.22;30.00;99584.63;5091522;28;20552;-83
2022/06/18 09:32:07;;;;;;;5.03;4.43;;;;;;;32.25;30.06;99586.09;5091270;28;20478;-85
2022/06/18 09:34:45;;;;;;;5.40;2.97;;;;;;;32.20;30.49;99575.66;5091867;28;20931;-82
2022/06/18 09:37:17;;;;;;;3.47;2.60;;;;;;;32.23;30.89;99568.81;5091457;28;20904;-84
2022/06/18 09:39:49;;;;;;;3.77;2.83;;;;;;;32.31;30.23;99576.84;5091988;28;20414;-84
2022/06/18 09:42:21;;;;;;;4.60;2.70;;;;;;;32.46;30.05;99577.31;5091130;28;20426;-82
2022/06/18 09:44:54;;;;;;;3.30;2.40;;;;;;;32.59;30.67;99568.81;5094985;28;20434;-83
2022/06/18 09:47:25;;;;;;;2.57;2.07;;;;;;;32.72;30.76;99570.59;5094880;28;20619;-82
2022/06/18 09:49:53;;;;;;;4.07;2.47;;;;;;;32.76;31.15;99570.94;5095793;28;20763;-83
2022/06/18 09:52:32;;;;;;;2.77;2.27;;;;;;;32.76;31.27;99562.59;5094960;28;20481;-85
2022/06/18 09:55:05;;;;;;;2.70;2.07;;;;;;;32.76;31.76;99563.44;5095591;28;20922;-84
2022/06/18 09:57:36;;;;;;;4.63;3.07;;;;;;;32.85;31.79;99561.16;5095329;28;20438;-84
2022/06/18 10:00:08;;;;;;;6.50;3.00;;;;;;;32.96;31.80;99568.72;5095497;28;20444;-83
2022/06/18 10:02:39;;;;;;;7.87;3.10;;;;;;;32.72;32.45;99562.22;5095587;28;20517;-83
2022/06/18 10:08:04;;;;;;;6.30;2.70;;;;;;;33.03;32.17;99552.75;5095863;28;20425;-82
2022/06/18 10:10:34;;;;;;;2.80;2.60;;;;;;;32.87;32.46;99556.22;5094180;28;20456;-82
2022/06/18 10:13:02;;;;;;;3.50;2.57;;;;;;;32.98;32.06;99546.19;5094568;28;20557;-83
2022/06/18 10:15:29;;;;;;;5.57;3.20;;;;;;;33.18;32.21;99540.34;5094234;28;20473;-85
2022/06/18 10:18:19;;;;;;;4.67;3.20;;;;;;;33.30;31.96;99538.41;5094169;28;20469;-83
2022/06/18 10:20:54;;;;;;;3.70;2.80;;;;;;;33.47;31.98;99532.13;5095324;28;20513;-84
2022/06/18 10:23:39;;;;;;;3.50;2.80;;;;;;;33.32;31.42;99524.25;5095410;28;20426;-83
2022/06/18 10:26:16;;;;;;;4.90;2.30;;;;;;;33.36;31.14;99526.31;5094361;28;20508;-84
2022/06/18 10:28:56;;;;;;;5.37;3.23;;;;;;;33.22;31.26;99527.63;5094726;28;20891;-84
2022/06/18 10:31:35;;;;;;;4.23;3.17;;;;;;;33.15;31.63;99529.66;5093870;28;20477;-84
2022/06/18 10:34:15;;;;;;;4.90;2.57;;;;;;;33.36;31.20;99519.88;5094658;28;20464;-83
2022/06/18 10:36:51;;;;;;;3.87;2.30;;;;;;;33.46;31.24;99514.56;5094384;28;20526;-83
2022/06/18 10:39:22;;;;;;;8.13;2.80;;;;;;;33.54;31.66;99505.81;5094183;28;20508;-84
2022/06/18 10:42:11;;;;;;;6.50;2.90;;;;;;;33.70;31.55;99501.50;5094146;28;20428;-85
2022/06/18 10:44:54;;;;;;;4.53;2.70;;;;;;;33.73;31.71;99503.78;5094745;28;20513;-85
2022/06/18 10:47:21;;;;;;;4.13;2.60;;;;;;;33.89;31.45;99501.34;5093799;28;20862;-85
2022/06/18 10:50:00;;;;;;;7.03;2.80;;;;;;;34.03;31.27;99498.06;5094038;28;20462;-85
2022/06/18 10:52:28;;;;;;;3.97;2.70;;;;;;;34.01;31.61;99499.38;5094204;28;20565;-86
2022/06/18 10:55:10;;;;;;;3.20;2.63;;;;;;;33.91;31.87;99488.00;5094354;28;20450;-84
2022/06/18 10:57:37;;;;;;;4.53;2.97;;;;;;;33.94;31.94;99484.72;5093278;28;20485;-85
2022/06/18 11:00:14;;;;;;;9.40;3.50;;;;;;;34.00;31.53;99486.53;5093089;28;21015;-84
2022/06/18 11:02:41;;;;;;;5.20;2.90;;;;;;;34.14;31.19;99489.94;5093010;28;20430;-82
2022/06/18 11:05:20;;;;;;;5.73;2.97;;;;;;;34.14;31.24;99479.59;5093360;28;20541;-80
2022/06/18 11:07:51;;;;;;;9.97;3.30;;;;;;;34.21;31.34;99485.91;5090846;28;20532;-81
2022/06/18 11:10:24;;;;;;;4.43;2.87;;;;;;;34.23;31.54;99480.06;5093451;28;20434;-81
2022/06/18 11:12:54;;;;;;;4.80;3.27;;;;;;;34.32;30.59;99474.94;5093192;28;20462;-81
2022/06/18 11:15:30;;;;;;;4.93;2.80;;;;;;;34.35;31.36;99466.06;5093620;28;20422;-81
2022/06/18 11:17:56;;;;;;;2.90;2.60;;;;;;;34.46;31.45;99463.25;5093059;28;21324;-81
2022/06/18 11:20:26;;;;;;;4.83;2.60;;;;;;;34.46;31.73;99459.56;5093657;28;20512;-81
2022/06/18 11:22:56;;;;;;;7.80;4.20;;;;;;;34.45;30.67;99458.72;5093271;28;20858;-81
2022/06/18 11:25:29;;;;;;;6.30;3.03;;;;;;;34.48;30.41;99452.63;5093056;28;20825;-80
2022/06/18 11:27:59;;;;;;;3.77;3.00;;;;;;;34.73;29.64;99447.81;5092402;28;20485;-81
2022/06/18 11:30:31;;;;;;;3.70;2.83;;;;;;;34.79;29.13;99444.88;5093188;28;20446;-81
2022/06/18 11:32:58;;;;;;;6.10;3.20;;;;;;;34.85;28.48;99443.03;5092755;28;20470;-80
2022/06/18 11:52:21;;;;;;;9.03;3.57;;;;;;;34.96;26.67;99418.84;5072194;28;20386;-83
